Time;durP1;ratioP1;P1;durP2;ratioP2;P2;SDS_P1;SDS_P2;PMS_P1;PMS_P2;Temp;Humidity;BMP_temperature;BMP_pressure;BME280_temperature;BME280_humidity;BME280_pressure;Samples;Min_cycle;Max_cycle;Signal;HPM_P1;HPM_P2
2021/11/08 00:00:16;;;;;;;;;;;;;;;;;;5135623;27;19923;-78
2021/11/08 00:02:45;;;;;;;;;;;;;;;;;;5135766;27;19927;-78
2021/11/08 00:05:13;;;;;;;;;;;;;;;;;;5135612;27;19924;-78
2021/11/08 00:07:42;;;;;;;;;;;;;;;;;;5135335;27;19946;-78
2021/11/08 00:10:09;;;;;;;;;;;;;;;;;;5135385;27;19927;-80
2021/11/08 00:12:36;;;;;;;;;;;;;;;;;;5126236;27;19924;-80
2021/11/08 00:15:06;;;;;;;;;;;;;;;;;;5133255;27;20253;-78
2021/11/08 00:17:48;;;;;;;;;;;;;;;;;;5135257;27;19935;-79
2021/11/08 00:20:23;;;;;;;;;;;;;;;;;;5135192;27;20380;-80
2021/11/08 00:22:50;;;;;;;;;;;;;;;;;;5135206;27;20380;-79
2021/11/08 00:25:17;;;;;;;;;;;;;;;;;;5135176;27;19946;-79
2021/11/08 00:27:44;;;;;;;;;;;;;;;;;;5135261;27;19927;-79
2021/11/08 00:30:12;;;;;;;;;;;;;;;;;;5135608;27;19923;-78
2021/11/08 00:32:40;;;;;;;;;;;;;;;;;;5135323;27;19927;-78
2021/11/08 00:35:07;;;;;;;;;;;;;;;;;;5135192;27;20000;-78
2021/11/08 00:37:36;;;;;;;;;;;;;;;;;;5134755;27;19984;-78
2021/11/08 00:40:06;;;;;;;;;;;;;;;;;;5135072;27;20276;-78
2021/11/08 00:42:33;;;;;;;;;;;;;;;;;;5134839;27;19932;-78
2021/11/08 00:45:00;;;;;;;;;;;;;;;;;;5135084;27;19923;-78
2021/11/08 00:47:28;;;;;;;;;;;;;;;;;;5134582;27;19927;-79
2021/11/08 00:49:56;;;;;;;;;;;;;;;;;;5134966;27;19987;-80
2021/11/08 00:52:24;;;;;;;;;;;;;;;;;;5134925;27;19933;-80
2021/11/08 00:54:52;;;;;;;;;;;;;;;;;;5134135;27;19984;-79
2021/11/08 00:57:22;;;;;;;;;;;;;;;;;;5134633;27;19928;-78
2021/11/08 00:59:51;;;;;;;;;;;;;;;;;;5134629;27;19934;-78
2021/11/08 01:02:23;;;;;;;;;;;;;;;;;;5134474;27;19949;-78
2021/11/08 01:04:51;;;;;;;;;;;;;;;;;;5134504;27;19931;-78
2021/11/08 01:07:18;;;;;;;;;;;;;;;;;;5133906;27;20297;-78
2021/11/08 01:09:45;;;;;;;;;;;;;;;;;;5134088;27;19924;-78
2021/11/08 01:12:14;;;;;;;;;;;;;;;;;;5128427;27;19924;-78
2021/11/08 01:14:41;;;;;;;;;;;;;;;;;;5128049;27;19927;-79
2021/11/08 01:17:09;;;;;;;;;;;;;;;;;;5133991;27;19957;-79
2021/11/08 01:19:36;;;;;;;;;;;;;;;;;;5133914;27;19924;-79
2021/11/08 01:22:06;;;;;;;;;;;;;;;;;;5134546;27;19923;-79
2021/11/08 01:24:34;;;;;;;;;;;;;;;;;;5133933;27;20336;-79
2021/11/08 01:27:04;;;;;;;;;;;;;;;;;;5133977;27;19923;-80
2021/11/08 01:29:32;;;;;;;;;;;;;;;;;;5133178;27;19928;-80
2021/11/08 01:32:00;;;;;;;;;;;;;;;;;;5133453;27;19934;-78
2021/11/08 01:34:27;;;;;;;;;;;;;;;;;;5133585;27;19927;-78
2021/11/08 01:36:55;;;;;;;;;;;;;;;;;;5133451;27;19924;-78
2021/11/08 01:39:30;;;;;;;;;;;;;;;;;;5133430;27;19988;-78
2021/11/08 01:41:58;;;;;;;;;;;;;;;;;;5133781;27;19927;-80
2021/11/08 01:44:26;;;;;;;;;;;;;;;;;;5133437;27;19924;-81
2021/11/08 01:46:55;;;;;;;;;;;;;;;;;;5133451;27;19924;-79
2021/11/08 01:49:22;;;;;;;;;;;;;;;;;;5133164;27;20360;-80
2021/11/08 01:51:49;;;;;;;;;;;;;;;;;;5133703;27;19927;-80
2021/11/08 01:54:16;;;;;;;;;;;;;;;;;;5133644;27;20247;-81
2021/11/08 01:56:44;;;;;;;;;;;;;;;;;;5132985;27;19935;-78
2021/11/08 01:59:12;;;;;;;;;;;;;;;;;;5133183;27;19924;-80
2021/11/08 02:01:39;;;;;;;;;;;;;;;;;;5133271;27;19927;-79
2021/11/08 02:04:07;;;;;;;;;;;;;;;;;;5132816;27;19923;-79
2021/11/08 02:06:34;;;;;;;;;;;;;;;;;;5132870;27;19938;-79
2021/11/08 02:09:01;;;;;;;;;;;;;;;;;;5132737;27;20368;-79
2021/11/08 02:11:31;;;;;;;;;;;;;;;;;;5132874;27;19931;-79
2021/11/08 02:13:58;;;;;;;;;;;;;;;;;;5121132;27;19935;-79
2021/11/08 02:16:25;;;;;;;;;;;;;;;;;;5132887;27;19923;-80
2021/11/08 02:18:53;;;;;;;;;;;;;;;;;;5133206;27;19938;-80
2021/11/08 02:21:22;;;;;;;;;;;;;;;;;;5132688;27;19927;-80
2021/11/08 02:23:50;;;;;;;;;;;;;;;;;;5132912;27;19927;-78
2021/11/08 02:26:18;;;;;;;;;;;;;;;;;;5132852;27;19923;-78
2021/11/08 02:28:46;;;;;;;;;;;;;;;;;;5133036;27;19928;-78
2021/11/08 02:31:16;;;;;;;;;;;;;;;;;;5132609;27;19937;-78
2021/11/08 02:33:44;;;;;;;;;;;;;;;;;;5132682;27;19927;-79
2021/11/08 02:36:11;;;;;;;;;;;;;;;;;;5132785;27;19963;-78
2021/11/08 02:38:43;;;;;;;;;;;;;;;;;;5131819;27;19935;-78
2021/11/08 02:41:10;;;;;;;;;;;;;;;;;;5132455;27;20063;-78
2021/11/08 02:43:39;;;;;;;;;;;;;;;;;;5132571;27;19927;-78
2021/11/08 02:46:09;;;;;;;;;;;;;;;;;;5132626;27;20338;-78
2021/11/08 02:48:37;;;;;;;;;;;;;;;;;;5132731;27;20338;-79
2021/11/08 02:51:09;;;;;;;;;;;;;;;;;;5132542;28;19927;-79
2021/11/08 02:53:38;;;;;;;;;;;;;;;;;;5132488;27;19923;-78
2021/11/08 02:56:07;;;;;;;;;;;;;;;;;;5132303;27;19931;-78
2021/11/08 02:58:34;;;;;;;;;;;;;;;;;;5132528;28;19934;-78
2021/11/08 03:01:02;;;;;;;;;;;;;;;;;;5132349;28;19923;-79
2021/11/08 03:03:35;;;;;;;;;;;;;;;;;;5132260;28;19993;-78
2021/11/08 03:06:09;;;;;;;;;;;;;;;;;;5132459;28;20267;-78
2021/11/08 03:08:36;;;;;;;;;;;;;;;;;;5131782;28;20343;-78
2021/11/08 03:11:04;;;;;;;;;;;;;;;;;;5132599;28;19967;-78
2021/11/08 03:13:34;;;;;;;;;;;;;;;;;;5120060;28;19934;-78
2021/11/08 03:16:07;;;;;;;;;;;;;;;;;;5132084;28;19935;-78
2021/11/08 03:18:39;;;;;;;;;;;;;;;;;;5132179;28;20033;-78
2021/11/08 03:21:14;;;;;;;;;;;;;;;;;;5132260;28;19923;-80
2021/11/08 03:23:42;;;;;;;;;;;;;;;;;;5132567;28;19923;-80
2021/11/08 03:26:15;;;;;;;;;;;;;;;;;;5132233;28;20523;-80
2021/11/08 03:28:44;;;;;;;;;;;;;;;;;;5132089;28;19976;-78
2021/11/08 03:31:12;;;;;;;;;;;;;;;;;;5132024;28;20340;-80
2021/11/08 03:33:39;;;;;;;;;;;;;;;;;;5131936;28;19980;-80
2021/11/08 03:36:08;;;;;;;;;;;;;;;;;;5132437;28;19954;-80
2021/11/08 03:38:38;;;;;;;;;;;;;;;;;;5131647;28;19933;-80
2021/11/08 03:41:06;;;;;;;;;;;;;;;;;;5132297;28;19998;-80
2021/11/08 03:43:33;;;;;;;;;;;;;;;;;;5132076;28;19935;-79
2021/11/08 03:46:02;;;;;;;;;;;;;;;;;;5131730;28;19947;-80
2021/11/08 03:48:29;;;;;;;;;;;;;;;;;;5131783;28;20367;-80
2021/11/08 03:50:56;;;;;;;;;;;;;;;;;;5132099;28;19927;-80
2021/11/08 03:53:24;;;;;;;;;;;;;;;;;;5132717;27;20369;-80
2021/11/08 03:55:52;;;;;;;;;;;;;;;;;;5135424;27;19923;-79
2021/11/08 03:58:19;;;;;;;;;;;;;;;;;;5135213;27;20422;-78
2021/11/08 04:00:47;;;;;;;;;;;;;;;;;;5135821;27;19946;-78
2021/11/08 04:03:15;;;;;;;;;;;;;;;;;;5135293;27;20328;-78
2021/11/08 04:05:43;;;;;;;;;;;;;;;;;;5135559;27;19950;-78
2021/11/08 04:08:12;;;;;;;;;;;;;;;;;;5135510;27;19934;-78
2021/11/08 04:10:41;;;;;;;;;;;;;;;;;;5135363;27;20264;-78
2021/11/08 04:13:09;;;;;;;;;;;;;;;;;;5123066;27;20001;-78
2021/11/08 04:15:38;;;;;;;;;;;;;;;;;;5135160;27;19923;-78
2021/11/08 04:18:06;;;;;;;;;;;;;;;;;;5135592;27;20014;-77
2021/11/08 04:20:34;;;;;;;;;;;;;;;;;;5135088;27;19924;-79
2021/11/08 04:23:02;;;;;;;;;;;;;;;;;;5135101;27;19942;-79
2021/11/08 04:25:29;;;;;;;;;;;;;;;;;;5135189;27;19931;-77
2021/11/08 04:27:57;;;;;;;;;;;;;;;;;;5135569;27;20006;-78
2021/11/08 04:30:26;;;;;;;;;;;;;;;;;;5135075;27;19923;-79
2021/11/08 04:33:12;;;;;;;;;;;;;;;;;;5135033;27;19923;-80
2021/11/08 04:35:46;;;;;;;;;;;;;;;;;;5135408;27;19974;-78
2021/11/08 04:38:27;;;;;;;;;;;;;;;;;;5134639;27;20322;-78
2021/11/08 04:41:06;;;;;;;;;;;;;;;;;;5135364;27;19924;-78
2021/11/08 04:43:47;;;;;;;;;;;;;;;;;;5135287;27;19976;-78
2021/11/08 04:49:05;;;;;;;;;;;;;;;;;;5103198;27;19965;-79
2021/11/08 04:51:41;;;;;;;;;;;;;;;;;;5134907;27;19935;-84
2021/11/08 04:54:14;;;;;;;;;;;;;;;;;;5134943;27;19931;-80
2021/11/08 05:21:51;;;;;;;;;;;;;;;;;;5133972;27;20393;-78
2021/11/08 05:30:00;;;;;;;;;;;;;;;;;;5133979;27;20169;-78
2021/11/08 05:32:30;;;;;;;;;;;;;;;;;;5134033;27;20423;-78
2021/11/08 05:34:57;;;;;;;;;;;;;;;;;;5133784;27;19927;-78
2021/11/08 05:37:24;;;;;;;;;;;;;;;;;;5133709;27;19938;-78
2021/11/08 05:39:54;;;;;;;;;;;;;;;;;;5133553;27;19973;-78
2021/11/08 05:42:22;;;;;;;;;;;;;;;;;;5133629;27;19923;-79
2021/11/08 05:44:50;;;;;;;;;;;;;;;;;;5133414;27;19934;-78
2021/11/08 05:47:17;;;;;;;;;;;;;;;;;;5131825;27;19923;-79
2021/11/08 05:49:45;;;;;;;;;;;;;;;;;;5120641;27;19931;-79
2021/11/08 05:52:12;;;;;;;;;;;;;;;;;;5133263;27;20429;-80
2021/11/08 05:54:39;;;;;;;;;;;;;;;;;;5133894;27;19927;-78
2021/11/08 06:00:14;;;;;;;;;;;;;;;;;;5133139;27;19930;-78
2021/11/08 06:49:44;;;;;;;;;;;;;;;;;;5127912;27;20003;-81
2021/11/08 06:52:13;;;;;;;;;;;;;;;;;;5123101;27;20013;-80
2021/11/08 06:54:43;;;;;;;;;;;;;;;;;;5113812;27;19971;-80
2021/11/08 06:57:15;;;;;;;;;;;;;;;;;;5113274;28;19932;-79
2021/11/08 06:59:44;;;;;;;;;;;;;;;;;;5127073;28;19976;-78
2021/11/08 07:02:13;;;;;;;;;;;;;;;;;;5129421;28;20271;-78
2021/11/08 07:04:40;;;;;;;;;;;;;;;;;;5126835;27;19931;-77
2021/11/08 07:07:09;;;;;;;;;;;;;;;;;;5129084;28;19924;-80
2021/11/08 07:09:37;;;;;;;;;;;;;;;;;;5110725;27;20034;-78
2021/11/08 07:12:05;;;;;;;;;;;;;;;;;;5122442;28;19923;-80
2021/11/08 07:14:33;;;;;;;;;;;;;;;;;;5128733;27;20374;-78
2021/11/08 07:17:00;;;;;;;;;;;;;;;;;;5117324;27;19931;-79
2021/11/08 07:19:28;;;;;;;;;;;;;;;;;;5128583;28;19923;-80
2021/11/08 07:21:55;;;;;;;;;;;;;;;;;;5129217;28;20315;-78
2021/11/08 07:24:22;;;;;;;;;;;;;;;;;;5127855;28;19935;-79
2021/11/08 07:26:49;;;;;;;;;;;;;;;;;;5128906;28;19931;-79
2021/11/08 07:29:17;;;;;;;;;;;;;;;;;;5116759;28;19924;-79
2021/11/08 07:31:44;;;;;;;;;;;;;;;;;;5122323;27;19923;-79
2021/11/08 07:34:11;;;;;;;;;;;;;;;;;;5116816;27;19927;-79
2021/11/08 07:36:40;;;;;;;;;;;;;;;;;;5123741;27;19929;-78
2021/11/08 07:39:07;;;;;;;;;;;;;;;;;;5129241;27;19970;-78
2021/11/08 07:41:35;;;;;;;;;;;;;;;;;;5125763;27;20268;-78
2021/11/08 07:44:02;;;;;;;;;;;;;;;;;;5129546;27;20340;-78
2021/11/08 07:46:29;;;;;;;;;;;;;;;;;;5132507;27;20275;-77
2021/11/08 07:48:56;;;;;;;;;;;;;;;;;;5121177;27;19923;-79
2021/11/08 07:51:24;;;;;;;;;;;;;;;;;;5121313;27;19927;-78
2021/11/08 07:53:52;;;;;;;;;;;;;;;;;;5115344;27;20277;-78
2021/11/08 07:56:20;;;;;;;;;;;;;;;;;;5129530;27;19924;-79
2021/11/08 07:58:48;;;;;;;;;;;;;;;;;;5132471;27;20305;-78
2021/11/08 08:01:16;;;;;;;;;;;;;;;;;;5126301;27;20047;-77
2021/11/08 08:03:45;;;;;;;;;;;;;;;;;;5124593;27;19950;-78
2021/11/08 08:06:12;;;;;;;;;;;;;;;;;;5132815;27;19985;-79
2021/11/08 08:08:39;;;;;;;;;;;;;;;;;;5131740;27;19923;-77
2021/11/08 08:11:08;;;;;;;;;;;;;;;;;;5119339;27;19924;-78
2021/11/08 08:13:37;;;;;;;;;;;;;;;;;;5127276;27;19927;-79
2021/11/08 08:16:06;;;;;;;;;;;;;;;;;;5131707;27;19924;-79
2021/11/08 08:18:36;;;;;;;;;;;;;;;;;;5123435;27;19938;-78
2021/11/08 08:21:03;;;;;;;;;;;;;;;;;;5130873;27;19976;-78
2021/11/08 08:23:30;;;;;;;;;;;;;;;;;;5131838;27;20790;-79
2021/11/08 08:25:57;;;;;;;;;;;;;;;;;;5129454;27;19949;-81
2021/11/08 08:28:25;;;;;;;;;;;;;;;;;;5111038;28;19930;-80
2021/11/08 08:30:54;;;;;;;;;;;;;;;;;;5118026;27;19927;-79
2021/11/08 08:33:21;;;;;;;;;;;;;;;;;;5126487;27;19939;-79
2021/11/08 08:35:48;;;;;;;;;;;;;;;;;;5116486;27;19938;-80
2021/11/08 08:38:17;;;;;;;;;;;;;;;;;;5125075;27;20366;-81
2021/11/08 08:40:45;;;;;;;;;;;;;;;;;;5129310;27;19974;-79
2021/11/08 08:43:12;;;;;;;;;;;;;;;;;;5128541;27;19938;-84
2021/11/08 08:45:41;;;;;;;;;;;;;;;;;;5123793;27;19923;-83
2021/11/08 08:48:09;;;;;;;;;;;;;;;;;;5111333;28;20403;-82
2021/11/08 08:50:36;;;;;;;;;;;;;;;;;;5119944;27;19934;-82
2021/11/08 08:53:04;;;;;;;;;;;;;;;;;;5121316;27;19927;-82
2021/11/08 08:55:32;;;;;;;;;;;;;;;;;;5114287;27;19987;-83
2021/11/08 08:57:59;;;;;;;;;;;;;;;;;;5109819;28;20273;-82
2021/11/08 09:00:26;;;;;;;;;;;;;;;;;;5110018;28;19924;-83
2021/11/08 09:02:55;;;;;;;;;;;;;;;;;;5110974;28;19923;-82
2021/11/08 09:05:25;;;;;;;;;;;;;;;;;;5110258;28;19931;-82
2021/11/08 09:07:52;;;;;;;;;;;;;;;;;;5109003;28;19927;-83
2021/11/08 09:10:20;;;;;;;;;;;;;;;;;;5109796;28;19934;-79
2021/11/08 09:12:47;;;;;;;;;;;;;;;;;;5109347;28;20345;-80
2021/11/08 09:15:14;;;;;;;;;;;;;;;;;;5110492;28;19940;-79
2021/11/08 09:17:41;;;;;;;;;;;;;;;;;;5110752;28;19934;-79
2021/11/08 09:20:10;;;;;;;;;;;;;;;;;;5109685;28;19928;-78
2021/11/08 09:22:42;;;;;;;;;;;;;;;;;;5110861;28;19931;-80
2021/11/08 09:25:10;;;;;;;;;;;;;;;;;;5106773;28;19931;-79
2021/11/08 09:27:37;;;;;;;;;;;;;;;;;;5090733;28;19934;-83
2021/11/08 09:30:05;;;;;;;;;;;;;;;;;;5100386;28;20284;-79
2021/11/08 09:32:33;;;;;;;;;;;;;;;;;;5097110;28;20264;-80
2021/11/08 09:35:00;;;;;;;;;;;;;;;;;;5110339;28;20252;-79
2021/11/08 09:37:32;;;;;;;;;;;;;;;;;;5108140;28;19924;-79
2021/11/08 09:39:59;;;;;;;;;;;;;;;;;;5109295;28;20600;-80
2021/11/08 09:42:28;;;;;;;;;;;;;;;;;;5109478;28;19935;-79
2021/11/08 09:44:55;;;;;;;;;;;;;;;;;;5103460;28;20429;-78
2021/11/08 09:47:23;;;;;;;;;;;;;;;;;;5109895;28;19927;-79
2021/11/08 09:49:52;;;;;;;;;;;;;;;;;;5099348;28;19936;-79
2021/11/08 09:52:21;;;;;;;;;;;;;;;;;;5097812;28;20015;-80
2021/11/08 09:54:49;;;;;;;;;;;;;;;;;;5100873;27;19935;-80
2021/11/08 09:57:17;;;;;;;;;;;;;;;;;;5116852;27;20184;-80
2021/11/08 09:59:44;;;;;;;;;;;;;;;;;;5124828;27;19923;-80
2021/11/08 10:02:13;;;;;;;;;;;;;;;;;;5130065;27;19931;-79
2021/11/08 10:04:41;;;;;;;;;;;;;;;;;;5122776;27;20284;-81
2021/11/08 10:07:08;;;;;;;;;;;;;;;;;;5129667;27;19935;-81
2021/11/08 10:09:36;;;;;;;;;;;;;;;;;;5129330;27;19938;-80
2021/11/08 10:12:07;;;;;;;;;;;;;;;;;;5128819;27;19923;-80
2021/11/08 10:14:34;;;;;;;;;;;;;;;;;;5128879;27;19928;-78
2021/11/08 10:17:02;;;;;;;;;;;;;;;;;;5129815;27;19938;-79
2021/11/08 10:19:32;;;;;;;;;;;;;;;;;;5124214;27;20333;-79
2021/11/08 10:21:59;;;;;;;;;;;;;;;;;;5129806;27;20333;-79
2021/11/08 10:24:27;;;;;;;;;;;;;;;;;;5115076;27;19927;-81
2021/11/08 10:26:55;;;;;;;;;;;;;;;;;;5120247;27;20223;-81
2021/11/08 10:29:25;;;;;;;;;;;;;;;;;;5114827;27;19923;-79
2021/11/08 10:31:54;;;;;;;;;;;;;;;;;;5120161;27;19934;-79
2021/11/08 10:34:22;;;;;;;;;;;;;;;;;;5129066;27;20204;-81
2021/11/08 10:36:56;;;;;;;;;;;;;;;;;;5124130;27;19927;-79
2021/11/08 10:39:24;;;;;;;;;;;;;;;;;;5122892;27;19928;-81
2021/11/08 10:41:53;;;;;;;;;;;;;;;;;;5109048;28;19975;-79
2021/11/08 10:44:23;;;;;;;;;;;;;;;;;;5114184;27;20317;-81
2021/11/08 10:46:57;;;;;;;;;;;;;;;;;;5120366;27;20278;-79
2021/11/08 10:49:26;;;;;;;;;;;;;;;;;;5115545;27;20285;-80
2021/11/08 10:51:55;;;;;;;;;;;;;;;;;;5118867;27;19928;-79
2021/11/08 10:54:24;;;;;;;;;;;;;;;;;;5108511;28;20034;-79
2021/11/08 10:56:55;;;;;;;;;;;;;;;;;;5121740;28;19942;-81
2021/11/08 10:59:23;;;;;;;;;;;;;;;;;;5128585;27;19923;-81
2021/11/08 11:01:54;;;;;;;;;;;;;;;;;;5129488;27;19971;-81
2021/11/08 11:04:29;;;;;;;;;;;;;;;;;;5122309;27;20136;-82
2021/11/08 11:06:57;;;;;;;;;;;;;;;;;;5130680;27;19996;-80
2021/11/08 11:09:26;;;;;;;;;;;;;;;;;;5121448;27;19923;-81
2021/11/08 11:12:06;;;;;;;;;;;;;;;;;;5129186;27;19937;-81
2021/11/08 11:14:34;;;;;;;;;;;;;;;;;;5129401;27;19927;-81
2021/11/08 11:17:07;;;;;;;;;;;;;;;;;;5135489;27;19931;-79
2021/11/08 11:19:35;;;;;;;;;;;;;;;;;;5130925;27;19938;-79
2021/11/08 11:22:06;;;;;;;;;;;;;;;;;;5135807;27;19963;-80
2021/11/08 11:24:41;;;;;;;;;;;;;;;;;;5120197;27;19927;-80
2021/11/08 11:27:12;;;;;;;;;;;;;;;;;;5129394;27;19928;-84
2021/11/08 11:29:39;;;;;;;;;;;;;;;;;;5126104;27;19989;-81
2021/11/08 11:32:19;;;;;;;;;;;;;;;;;;5127286;27;19924;-80
2021/11/08 11:34:47;;;;;;;;;;;;;;;;;;5135375;27;19935;-80
2021/11/08 11:37:16;;;;;;;;;;;;;;;;;;5133883;27;19977;-80
2021/11/08 11:39:44;;;;;;;;;;;;;;;;;;5126653;27;19928;-82
2021/11/08 11:42:12;;;;;;;;;;;;;;;;;;5119179;27;19935;-80
2021/11/08 11:44:40;;;;;;;;;;;;;;;;;;5126234;27;19923;-81
2021/11/08 11:47:14;;;;;;;;;;;;;;;;;;5135700;27;19934;-79
2021/11/08 11:49:44;;;;;;;;;;;;;;;;;;5135973;27;20034;-80
2021/11/08 11:52:13;;;;;;;;;;;;;;;;;;5117719;27;19942;-79
2021/11/08 11:54:40;;;;;;;;;;;;;;;;;;5117803;27;19955;-81
2021/11/08 11:57:08;;;;;;;;;;;;;;;;;;5113243;28;19927;-81
2021/11/08 11:59:37;;;;;;;;;;;;;;;;;;5114775;28;19935;-79
2021/11/08 12:02:05;;;;;;;;;;;;;;;;;;5111217;28;19931;-80
2021/11/08 12:04:33;;;;;;;;;;;;;;;;;;5114028;28;19967;-79
2021/11/08 12:07:03;;;;;;;;;;;;;;;;;;5114167;28;19940;-79
2021/11/08 12:09:34;;;;;;;;;;;;;;;;;;5113705;28;20000;-80
2021/11/08 12:12:02;;;;;;;;;;;;;;;;;;5105364;28;19974;-79
2021/11/08 12:14:32;;;;;;;;;;;;;;;;;;5111404;28;20373;-79
2021/11/08 12:17:02;;;;;;;;;;;;;;;;;;5110962;28;19938;-80
2021/11/08 12:19:32;;;;;;;;;;;;;;;;;;5110538;28;19934;-80
2021/11/08 12:22:11;;;;;;;;;;;;;;;;;;5110899;28;20419;-81
2021/11/08 12:24:39;;;;;;;;;;;;;;;;;;5111068;28;20222;-79
2021/11/08 12:27:08;;;;;;;;;;;;;;;;;;5111044;28;19935;-79
2021/11/08 12:29:46;;;;;;;;;;;;;;;;;;5110581;28;19927;-79
2021/11/08 12:32:13;;;;;;;;;;;;;;;;;;5094621;28;19928;-79
2021/11/08 12:34:41;;;;;;;;;;;;;;;;;;5110435;28;19927;-79
2021/11/08 12:37:09;;;;;;;;;;;;;;;;;;5110610;28;19981;-79
2021/11/08 12:39:36;;;;;;;;;;;;;;;;;;5109945;28;19928;-79
2021/11/08 12:42:08;;;;;;;;;;;;;;;;;;5090572;28;19927;-79
2021/11/08 12:44:40;;;;;;;;;;;;;;;;;;5107426;28;19934;-80
2021/11/08 12:47:10;;;;;;;;;;;;;;;;;;5111143;28;19963;-80
2021/11/08 12:49:40;;;;;;;;;;;;;;;;;;5110834;28;20001;-79
2021/11/08 12:52:10;;;;;;;;;;;;;;;;;;5110665;28;19939;-80
2021/11/08 12:54:45;;;;;;;;;;;;;;;;;;5113124;27;19924;-79
2021/11/08 12:57:14;;;;;;;;;;;;;;;;;;5124617;27;20355;-81
2021/11/08 12:59:43;;;;;;;;;;;;;;;;;;5114984;27;20260;-79
2021/11/08 13:02:18;;;;;;;;;;;;;;;;;;5110341;28;20375;-79
2021/11/08 13:04:47;;;;;;;;;;;;;;;;;;5119460;27;19935;-79
2021/11/08 13:07:15;;;;;;;;;;;;;;;;;;5119155;27;19927;-80
2021/11/08 13:09:43;;;;;;;;;;;;;;;;;;5123317;27;19931;-80
2021/11/08 13:12:12;;;;;;;;;;;;;;;;;;5121618;27;19939;-81
2021/11/08 13:14:40;;;;;;;;;;;;;;;;;;5122231;27;20430;-81
2021/11/08 13:17:09;;;;;;;;;;;;;;;;;;5122790;27;19927;-80
2021/11/08 13:19:41;;;;;;;;;;;;;;;;;;5130814;27;19938;-81
2021/11/08 13:22:13;;;;;;;;;;;;;;;;;;5130078;27;19928;-80
2021/11/08 13:24:40;;;;;;;;;;;;;;;;;;5128150;27;20303;-79
2021/11/08 13:27:08;;;;;;;;;;;;;;;;;;5109095;28;19954;-80
2021/11/08 13:29:36;;;;;;;;;;;;;;;;;;5117019;27;19946;-80
2021/11/08 13:32:10;;;;;;;;;;;;;;;;;;5130787;27;19938;-79
2021/11/08 13:34:37;;;;;;;;;;;;;;;;;;5111948;27;19927;-79
2021/11/08 13:37:04;;;;;;;;;;;;;;;;;;5115229;27;19923;-80
2021/11/08 13:39:31;;;;;;;;;;;;;;;;;;5131357;27;19927;-80
2021/11/08 13:41:58;;;;;;;;;;;;;;;;;;5112179;27;19938;-81
2021/11/08 13:44:25;;;;;;;;;;;;;;;;;;5117151;27;19928;-79
2021/11/08 13:46:53;;;;;;;;;;;;;;;;;;5121358;27;19928;-80
2021/11/08 13:49:23;;;;;;;;;;;;;;;;;;5118805;27;19931;-80
2021/11/08 13:51:52;;;;;;;;;;;;;;;;;;5114177;27;19923;-81
2021/11/08 13:54:20;;;;;;;;;;;;;;;;;;5124993;27;19927;-80
2021/11/08 13:56:48;;;;;;;;;;;;;;;;;;5129506;27;19927;-80
2021/11/08 13:59:22;;;;;;;;;;;;;;;;;;5131271;27;20096;-81
2021/11/08 14:01:52;;;;;;;;;;;;;;;;;;5119941;27;20291;-81
2021/11/08 14:04:20;;;;;;;;;;;;;;;;;;5126502;27;19933;-80
2021/11/08 14:06:48;;;;;;;;;;;;;;;;;;5124838;27;19927;-79
2021/11/08 14:09:20;;;;;;;;;;;;;;;;;;5131298;27;19927;-79
2021/11/08 14:11:47;;;;;;;;;;;;;;;;;;5124893;27;19930;-80
2021/11/08 14:14:15;;;;;;;;;;;;;;;;;;5129166;27;19928;-80
2021/11/08 14:16:43;;;;;;;;;;;;;;;;;;5130423;27;20381;-80
2021/11/08 14:19:11;;;;;;;;;;;;;;;;;;5126415;27;19923;-80
2021/11/08 14:21:38;;;;;;;;;;;;;;;;;;5129464;27;19961;-85
2021/11/08 14:24:09;;;;;;;;;;;;;;;;;;5110364;28;19924;-80
2021/11/08 14:26:38;;;;;;;;;;;;;;;;;;5123819;27;19928;-79
2021/11/08 14:29:09;;;;;;;;;;;;;;;;;;5127933;27;19928;-81
2021/11/08 14:31:37;;;;;;;;;;;;;;;;;;5113014;27;19927;-80
2021/11/08 14:34:07;;;;;;;;;;;;;;;;;;5125216;27;19931;-81
2021/11/08 14:36:39;;;;;;;;;;;;;;;;;;5112865;27;19934;-81
2021/11/08 14:39:11;;;;;;;;;;;;;;;;;;5113342;27;19927;-79
2021/11/08 14:41:38;;;;;;;;;;;;;;;;;;5112325;27;20300;-80
2021/11/08 14:44:08;;;;;;;;;;;;;;;;;;5116143;27;20190;-81
2021/11/08 14:46:40;;;;;;;;;;;;;;;;;;5118367;27;19942;-80
2021/11/08 14:49:11;;;;;;;;;;;;;;;;;;5113402;27;19927;-79
2021/11/08 14:51:39;;;;;;;;;;;;;;;;;;5114880;27;19939;-80
2021/11/08 14:54:08;;;;;;;;;;;;;;;;;;5122453;27;19928;-80
2021/11/08 14:56:37;;;;;;;;;;;;;;;;;;5109261;28;20272;-81
2021/11/08 14:59:05;;;;;;;;;;;;;;;;;;5109807;28;19935;-78
2021/11/08 15:01:33;;;;;;;;;;;;;;;;;;5109505;28;19927;-80
2021/11/08 15:04:01;;;;;;;;;;;;;;;;;;5109763;28;19923;-79
2021/11/08 15:06:28;;;;;;;;;;;;;;;;;;5094138;28;19928;-79
2021/11/08 15:09:01;;;;;;;;;;;;;;;;;;5102886;28;19957;-79
2021/11/08 15:11:30;;;;;;;;;;;;;;;;;;5110636;28;19927;-79
2021/11/08 15:14:02;;;;;;;;;;;;;;;;;;5108323;28;19923;-79
2021/11/08 15:16:29;;;;;;;;;;;;;;;;;;5110632;28;19928;-78
2021/11/08 15:19:01;;;;;;;;;;;;;;;;;;5108156;28;19928;-81
2021/11/08 15:21:33;;;;;;;;;;;;;;;;;;5110591;28;19943;-81
2021/11/08 15:24:06;;;;;;;;;;;;;;;;;;5110636;28;19927;-79
2021/11/08 15:26:34;;;;;;;;;;;;;;;;;;5108795;28;20037;-79
2021/11/08 15:29:07;;;;;;;;;;;;;;;;;;5096914;28;20365;-79
2021/11/08 15:31:34;;;;;;;;;;;;;;;;;;5111314;28;20363;-78
2021/11/08 15:34:07;;;;;;;;;;;;;;;;;;5111949;28;19927;-78
2021/11/08 15:36:36;;;;;;;;;;;;;;;;;;5111020;28;20048;-78
2021/11/08 15:39:05;;;;;;;;;;;;;;;;;;5111147;28;20002;-79
2021/11/08 15:41:32;;;;;;;;;;;;;;;;;;5111737;28;20311;-79
2021/11/08 15:44:01;;;;;;;;;;;;;;;;;;5111766;28;19931;-78
2021/11/08 15:46:28;;;;;;;;;;;;;;;;;;5111163;28;20364;-80
2021/11/08 15:48:55;;;;;;;;;;;;;;;;;;5112091;28;19928;-80
2021/11/08 15:51:24;;;;;;;;;;;;;;;;;;5114973;28;19931;-78
2021/11/08 15:53:52;;;;;;;;;;;;;;;;;;5115079;28;20018;-80
2021/11/08 15:56:19;;;;;;;;;;;;;;;;;;5131786;27;19939;-78
2021/11/08 15:58:47;;;;;;;;;;;;;;;;;;5135644;27;19927;-79
2021/11/08 16:01:15;;;;;;;;;;;;;;;;;;5135395;27;19934;-80
2021/11/08 16:03:42;;;;;;;;;;;;;;;;;;5135552;27;19950;-78
2021/11/08 16:06:10;;;;;;;;;;;;;;;;;;5135604;27;19935;-80
2021/11/08 16:08:37;;;;;;;;;;;;;;;;;;5135427;27;19935;-78
2021/11/08 16:11:04;;;;;;;;;;;;;;;;;;5135615;27;19923;-78
2021/11/08 16:13:31;;;;;;;;;;;;;;;;;;5135441;27;19951;-78
2021/11/08 16:15:58;;;;;;;;;;;;;;;;;;5135387;27;19934;-78
2021/11/08 16:18:27;;;;;;;;;;;;;;;;;;5135256;27;19946;-78
2021/11/08 16:21:00;;;;;;;;;;;;;;;;;;5134827;27;20261;-78
2021/11/08 16:23:27;;;;;;;;;;;;;;;;;;5135177;27;19981;-81
2021/11/08 16:25:54;;;;;;;;;;;;;;;;;;5137702;27;20364;-77
2021/11/08 16:28:22;;;;;;;;;;;;;;;;;;5139921;27;20275;-80
2021/11/08 16:30:50;;;;;;;;;;;;;;;;;;5134925;27;20042;-80
2021/11/08 16:33:18;;;;;;;;;;;;;;;;;;5135622;27;19927;-79
2021/11/08 16:35:48;;;;;;;;;;;;;;;;;;5135064;27;20364;-78
2021/11/08 16:38:16;;;;;;;;;;;;;;;;;;5134586;27;19927;-78
2021/11/08 16:40:45;;;;;;;;;;;;;;;;;;5134774;27;19934;-78
2021/11/08 16:43:15;;;;;;;;;;;;;;;;;;5134707;27;20122;-80
2021/11/08 16:45:46;;;;;;;;;;;;;;;;;;5135041;27;19935;-79
2021/11/08 16:48:14;;;;;;;;;;;;;;;;;;5135058;27;20355;-79
2021/11/08 16:50:41;;;;;;;;;;;;;;;;;;5134446;27;19932;-80
2021/11/08 16:53:09;;;;;;;;;;;;;;;;;;5135123;27;19934;-77
2021/11/08 16:55:36;;;;;;;;;;;;;;;;;;5134557;27;20352;-79
2021/11/08 16:58:04;;;;;;;;;;;;;;;;;;5134937;27;20038;-77
2021/11/08 17:00:33;;;;;;;;;;;;;;;;;;5134205;27;20660;-78
2021/11/08 17:03:00;;;;;;;;;;;;;;;;;;5134181;27;20372;-79
2021/11/08 17:05:35;;;;;;;;;;;;;;;;;;5134858;27;19924;-78
2021/11/08 17:08:03;;;;;;;;;;;;;;;;;;5133749;27;19923;-78
2021/11/08 17:10:40;;;;;;;;;;;;;;;;;;5134271;27;19942;-77
2021/11/08 17:13:26;;;;;;;;;;;;;;;;;;5122134;27;19927;-78
2021/11/08 17:15:53;;;;;;;;;;;;;;;;;;5134425;27;19934;-80
2021/11/08 17:18:20;;;;;;;;;;;;;;;;;;5134562;27;20006;-78
2021/11/08 17:20:49;;;;;;;;;;;;;;;;;;5134200;27;19934;-81
2021/11/08 17:23:17;;;;;;;;;;;;;;;;;;5134090;27;19976;-79
2021/11/08 17:25:46;;;;;;;;;;;;;;;;;;5134064;27;19927;-79
2021/11/08 17:28:14;;;;;;;;;;;;;;;;;;5134072;27;19931;-80
2021/11/08 17:30:42;;;;;;;;;;;;;;;;;;5133997;27;19927;-78
2021/11/08 17:33:10;;;;;;;;;;;;;;;;;;5133806;27;20263;-77
2021/11/08 17:35:37;;;;;;;;;;;;;;;;;;5134078;27;19927;-79
2021/11/08 17:38:05;;;;;;;;;;;;;;;;;;5133568;27;20095;-80
2021/11/08 17:40:33;;;;;;;;;;;;;;;;;;5133691;27;20387;-79
2021/11/08 17:43:02;;;;;;;;;;;;;;;;;;5134072;27;20095;-78
2021/11/08 17:45:29;;;;;;;;;;;;;;;;;;5133416;27;19927;-79
2021/11/08 17:47:57;;;;;;;;;;;;;;;;;;5133756;27;20353;-78
2021/11/08 17:50:25;;;;;;;;;;;;;;;;;;5133688;27;19967;-80
2021/11/08 17:52:53;;;;;;;;;;;;;;;;;;5133526;27;20340;-81
2021/11/08 17:55:21;;;;;;;;;;;;;;;;;;5132800;27;19923;-80
2021/11/08 17:57:49;;;;;;;;;;;;;;;;;;5133602;27;19934;-78
2021/11/08 18:00:17;;;;;;;;;;;;;;;;;;5133674;27;20168;-78
2021/11/08 18:02:46;;;;;;;;;;;;;;;;;;5134138;27;20271;-79
2021/11/08 18:05:14;;;;;;;;;;;;;;;;;;5136129;27;19924;-80
2021/11/08 18:07:44;;;;;;;;;;;;;;;;;;5134064;27;19985;-79
2021/11/08 18:10:12;;;;;;;;;;;;;;;;;;5134310;27;19927;-79
2021/11/08 18:12:39;;;;;;;;;;;;;;;;;;5123010;27;20368;-78
2021/11/08 18:15:07;;;;;;;;;;;;;;;;;;5130988;27;19923;-78
2021/11/08 18:17:36;;;;;;;;;;;;;;;;;;5133307;27;19924;-78
2021/11/08 18:20:09;;;;;;;;;;;;;;;;;;5133279;27;20355;-79